sensor_id;sensor_type;location;lat;lon;timestamp;temperature;humidity
18805;DHT22;9530;48.930;9.526;2022-09-03T00:00:05;16.80;99.90
18805;DHT22;9530;48.930;9.526;2022-09-03T00:02:38;16.80;99.90
18805;DHT22;9530;48.930;9.526;2022-09-03T00:05:09;16.80;99.90
18805;DHT22;9530;48.930;9.526;2022-09-03T00:07:45;16.70;99.90
18805;DHT22;9530;48.930;9.526;2022-09-03T00:10:17;16.70;99.90
18805;DHT22;9530;48.930;9.526;2022-09-03T00:12:45;16.70;99.90
18805;DHT22;9530;48.930;9.526;2022-09-03T00:15:14;16.70;99.90
18805;DHT22;9530;48.930;9.526;2022-09-03T00:17:45;16.70;99.90
18805;DHT22;9530;48.930;9.526;2022-09-03T00:20:18;16.70;99.90
18805;DHT22;9530;48.930;9.526;2022-09-03T00:22:49;16.70;99.90
18805;DHT22;9530;48.930;9.526;2022-09-03T00:25:20;16.60;99.90
18805;DHT22;9530;48.930;9.526;2022-09-03T00:27:52;16.60;99.90
18805;DHT22;9530;48.930;9.526;2022-09-03T00:30:20;16.60;99.90
18805;DHT22;9530;48.930;9.526;2022-09-03T00:32:51;16.60;99.90
18805;DHT22;9530;48.930;9.526;2022-09-03T00:35:24;16.60;99.90
18805;DHT22;9530;48.930;9.526;2022-09-03T00:37:53;16.60;99.90
18805;DHT22;9530;48.930;9.526;2022-09-03T00:40:44;16.60;99.90
18805;DHT22;9530;48.930;9.526;2022-09-03T00:43:21;16.70;99.90
18805;DHT22;9530;48.930;9.526;2022-09-03T00:45:55;16.70;99.90
18805;DHT22;9530;48.930;9.526;2022-09-03T00:48:29;16.80;99.90
18805;DHT22;9530;48.930;9.526;2022-09-03T00:51:07;16.80;99.90
18805;DHT22;9530;48.930;9.526;2022-09-03T00:53:43;16.90;99.90
18805;DHT22;9530;48.930;9.526;2022-09-03T00:56:21;16.90;99.90
18805;DHT22;9530;48.930;9.526;2022-09-03T00:59:02;17.00;99.90
18805;DHT22;9530;48.930;9.526;2022-09-03T01:01:39;17.00;99.90
18805;DHT22;9530;48.930;9.526;2022-09-03T01:04:24;17.00;99.90
18805;DHT22;9530;48.930;9.526;2022-09-03T01:07:00;17.10;99.90
18805;DHT22;9530;48.930;9.526;2022-09-03T01:09:40;17.10;99.90
18805;DHT22;9530;48.930;9.526;2022-09-03T01:12:11;17.10;99.90
18805;DHT22;9530;48.930;9.526;2022-09-03T01:14:49;17.10;99.90
18805;DHT22;9530;48.930;9.526;2022-09-03T01:17:28;17.20;99.90
18805;DHT22;9530;48.930;9.526;2022-09-03T01:20:10;17.20;99.90
18805;DHT22;9530;48.930;9.526;2022-09-03T01:23:17;17.20;99.90
18805;DHT22;9530;48.930;9.526;2022-09-03T01:25:52;17.30;99.90
18805;DHT22;9530;48.930;9.526;2022-09-03T01:28:38;17.30;99.90
18805;DHT22;9530;48.930;9.526;2022-09-03T01:31:15;17.30;99.90
18805;DHT22;9530;48.930;9.526;2022-09-03T01:33:51;17.40;99.90
18805;DHT22;9530;48.930;9.526;2022-09-03T01:36:25;17.40;99.90
18805;DHT22;9530;48.930;9.526;2022-09-03T01:38:59;17.50;99.90
18805;DHT22;9530;48.930;9.526;2022-09-03T01:41:36;17.40;99.90
18805;DHT22;9530;48.930;9.526;2022-09-03T01:44:34;17.40;99.90
18805;DHT22;9530;48.930;9.526;2022-09-03T01:47:14;17.50;99.90
18805;DHT22;9530;48.930;9.526;2022-09-03T01:49:48;17.50;99.90
18805;DHT22;9530;48.930;9.526;2022-09-03T01:52:29;17.60;99.90
18805;DHT22;9530;48.930;9.526;2022-09-03T01:55:11;17.60;99.90
18805;DHT22;9530;48.930;9.526;2022-09-03T01:57:51;17.60;99.90
18805;DHT22;9530;48.930;9.526;2022-09-03T02:00:22;17.50;99.90
18805;DHT22;9530;48.930;9.526;2022-09-03T02:02:50;17.60;99.90
18805;DHT22;9530;48.930;9.526;2022-09-03T02:05:19;17.60;99.90
18805;DHT22;9530;48.930;9.526;2022-09-03T02:07:50;17.60;99.90
18805;DHT22;9530;48.930;9.526;2022-09-03T02:10:19;17.60;99.90
18805;DHT22;9530;48.930;9.526;2022-09-03T02:12:50;17.60;99.90
18805;DHT22;9530;48.930;9.526;2022-09-03T02:15:20;17.60;99.90
18805;DHT22;9530;48.930;9.526;2022-09-03T02:17:52;17.60;99.90
18805;DHT22;9530;48.930;9.526;2022-09-03T02:20:22;17.60;99.90
18805;DHT22;9530;48.930;9.526;2022-09-03T02:22:51;17.60;99.90
18805;DHT22;9530;48.930;9.526;2022-09-03T02:25:22;17.60;99.90
18805;DHT22;9530;48.930;9.526;2022-09-03T02:27:50;17.60;99.90
18805;DHT22;9530;48.930;9.526;2022-09-03T02:30:16;17.80;99.90
18805;DHT22;9530;48.930;9.526;2022-09-03T02:32:44;17.70;99.90
18805;DHT22;9530;48.930;9.526;2022-09-03T02:35:12;17.70;99.90
18805;DHT22;9530;48.930;9.526;2022-09-03T02:37:38;17.70;99.90
18805;DHT22;9530;48.930;9.526;2022-09-03T02:40:06;17.80;99.90
18805;DHT22;9530;48.930;9.526;2022-09-03T02:42:35;17.70;99.90
18805;DHT22;9530;48.930;9.526;2022-09-03T02:45:12;17.80;99.90
18805;DHT22;9530;48.930;9.526;2022-09-03T02:47:43;17.70;99.90
18805;DHT22;9530;48.930;9.526;2022-09-03T02:50:11;17.70;99.90
18805;DHT22;9530;48.930;9.526;2022-09-03T02:52:38;17.70;99.90
18805;DHT22;9530;48.930;9.526;2022-09-03T02:55:05;17.80;99.90
18805;DHT22;9530;48.930;9.526;2022-09-03T02:57:32;17.70;99.90
18805;DHT22;9530;48.930;9.526;2022-09-03T02:59:58;17.80;99.90
18805;DHT22;9530;48.930;9.526;2022-09-03T03:02:25;17.70;99.90
18805;DHT22;9530;48.930;9.526;2022-09-03T03:04:52;17.70;99.90
18805;DHT22;9530;48.930;9.526;2022-09-03T03:07:21;17.60;99.90
18805;DHT22;9530;48.930;9.526;2022-09-03T03:09:47;17.70;99.90
18805;DHT22;9530;48.930;9.526;2022-09-03T03:12:14;17.60;99.90
18805;DHT22;9530;48.930;9.526;2022-09-03T03:14:41;17.60;99.90
18805;DHT22;9530;48.930;9.526;2022-09-03T03:17:08;17.70;99.90
18805;DHT22;9530;48.930;9.526;2022-09-03T03:19:35;17.70;99.90
18805;DHT22;9530;48.930;9.526;2022-09-03T03:22:02;17.70;99.90
18805;DHT22;9530;48.930;9.526;2022-09-03T03:24:30;17.60;99.90
18805;DHT22;9530;48.930;9.526;2022-09-03T03:26:56;17.60;99.90
18805;DHT22;9530;48.930;9.526;2022-09-03T03:29:23;17.50;99.90
18805;DHT22;9530;48.930;9.526;2022-09-03T03:31:51;17.50;99.90
18805;DHT22;9530;48.930;9.526;2022-09-03T03:34:18;17.40;99.90
18805;DHT22;9530;48.930;9.526;2022-09-03T03:36:45;17.40;99.90
18805;DHT22;9530;48.930;9.526;2022-09-03T03:39:11;17.40;99.90
18805;DHT22;9530;48.930;9.526;2022-09-03T03:41:39;17.40;99.90
18805;DHT22;9530;48.930;9.526;2022-09-03T03:44:07;17.40;99.90
18805;DHT22;9530;48.930;9.526;2022-09-03T03:46:35;17.40;99.90
18805;DHT22;9530;48.930;9.526;2022-09-03T03:49:03;17.40;99.90
18805;DHT22;9530;48.930;9.526;2022-09-03T03:51:31;17.40;99.90
18805;DHT22;9530;48.930;9.526;2022-09-03T03:53:58;17.30;99.90
18805;DHT22;9530;48.930;9.526;2022-09-03T03:56:25;17.30;99.90
18805;DHT22;9530;48.930;9.526;2022-09-03T03:58:54;17.20;99.90
18805;DHT22;9530;48.930;9.526;2022-09-03T04:01:22;17.20;99.90
18805;DHT22;9530;48.930;9.526;2022-09-03T04:03:50;17.10;99.90
18805;DHT22;9530;48.930;9.526;2022-09-03T04:06:18;17.10;99.90
18805;DHT22;9530;48.930;9.526;2022-09-03T04:08:46;17.20;99.90
18805;DHT22;9530;48.930;9.526;2022-09-03T04:11:15;17.10;99.90
18805;DHT22;9530;48.930;9.526;2022-09-03T04:13:44;17.10;99.90
18805;DHT22;9530;48.930;9.526;2022-09-03T04:16:14;17.10;99.90
18805;DHT22;9530;48.930;9.526;2022-09-03T04:18:41;17.20;99.90
18805;DHT22;9530;48.930;9.526;2022-09-03T04:21:10;17.10;99.90
18805;DHT22;9530;48.930;9.526;2022-09-03T04:23:38;17.20;99.90
18805;DHT22;9530;48.930;9.526;2022-09-03T04:26:06;17.20;99.90
18805;DHT22;9530;48.930;9.526;2022-09-03T04:28:33;17.20;99.90
18805;DHT22;9530;48.930;9.526;2022-09-03T04:31:00;17.20;99.90
18805;DHT22;9530;48.930;9.526;2022-09-03T04:33:28;17.10;99.90
18805;DHT22;9530;48.930;9.526;2022-09-03T04:36:04;17.10;99.90
18805;DHT22;9530;48.930;9.526;2022-09-03T04:38:31;17.10;99.90
18805;DHT22;9530;48.930;9.526;2022-09-03T04:40:58;17.20;99.90
18805;DHT22;9530;48.930;9.526;2022-09-03T04:43:25;17.20;99.90
18805;DHT22;9530;48.930;9.526;2022-09-03T04:45:55;17.20;99.90
18805;DHT22;9530;48.930;9.526;2022-09-03T04:48:23;17.20;99.90
18805;DHT22;9530;48.930;9.526;2022-09-03T04:50:51;17.20;99.90
18805;DHT22;9530;48.930;9.526;2022-09-03T04:53:17;17.30;99.90
18805;DHT22;9530;48.930;9.526;2022-09-03T04:55:44;17.20;99.90
18805;DHT22;9530;48.930;9.526;2022-09-03T04:58:11;17.30;99.90
18805;DHT22;9530;48.930;9.526;2022-09-03T05:00:38;17.30;99.90
18805;DHT22;9530;48.930;9.526;2022-09-03T05:03:04;17.30;99.90
18805;DHT22;9530;48.930;9.526;2022-09-03T05:05:32;17.40;99.90
18805;DHT22;9530;48.930;9.526;2022-09-03T05:08:01;17.50;99.90
18805;DHT22;9530;48.930;9.526;2022-09-03T05:10:29;17.50;99.90
18805;DHT22;9530;48.930;9.526;2022-09-03T05:13:00;17.50;99.90
18805;DHT22;9530;48.930;9.526;2022-09-03T05:15:27;17.50;99.90
18805;DHT22;9530;48.930;9.526;2022-09-03T05:17:58;17.40;99.90
18805;DHT22;9530;48.930;9.526;2022-09-03T05:20:26;17.50;99.90
18805;DHT22;9530;48.930;9.526;2022-09-03T05:22:55;17.50;99.90
18805;DHT22;9530;48.930;9.526;2022-09-03T05:25:23;17.50;99.90
18805;DHT22;9530;48.930;9.526;2022-09-03T05:27:50;17.50;99.90
18805;DHT22;9530;48.930;9.526;2022-09-03T05:30:19;17.60;99.90
18805;DHT22;9530;48.930;9.526;2022-09-03T05:32:47;17.60;99.90
18805;DHT22;9530;48.930;9.526;2022-09-03T05:35:14;17.70;99.90
18805;DHT22;9530;48.930;9.526;2022-09-03T05:37:40;17.70;99.90
18805;DHT22;9530;48.930;9.526;2022-09-03T05:40:08;17.70;99.90
18805;DHT22;9530;48.930;9.526;2022-09-03T05:42:37;17.70;99.90
18805;DHT22;9530;48.930;9.526;2022-09-03T05:45:06;17.60;99.90
18805;DHT22;9530;48.930;9.526;2022-09-03T05:47:36;17.60;99.90
18805;DHT22;9530;48.930;9.526;2022-09-03T05:50:04;17.60;99.90
18805;DHT22;9530;48.930;9.526;2022-09-03T05:52:31;17.50;99.90
18805;DHT22;9530;48.930;9.526;2022-09-03T05:54:58;17.50;99.90
18805;DHT22;9530;48.930;9.526;2022-09-03T05:57:25;17.60;99.90
18805;DHT22;9530;48.930;9.526;2022-09-03T05:59:53;17.70;99.90
18805;DHT22;9530;48.930;9.526;2022-09-03T06:02:20;17.80;99.90
18805;DHT22;9530;48.930;9.526;2022-09-03T06:04:47;17.90;99.90
18805;DHT22;9530;48.930;9.526;2022-09-03T06:07:13;18.00;99.90
18805;DHT22;9530;48.930;9.526;2022-09-03T06:09:41;18.10;99.90
18805;DHT22;9530;48.930;9.526;2022-09-03T06:12:07;18.20;99.90
18805;DHT22;9530;48.930;9.526;2022-09-03T06:14:34;18.10;99.90
18805;DHT22;9530;48.930;9.526;2022-09-03T06:17:02;18.20;99.90
18805;DHT22;9530;48.930;9.526;2022-09-03T06:19:29;18.20;99.90
18805;DHT22;9530;48.930;9.526;2022-09-03T06:21:56;18.20;99.90
18805;DHT22;9530;48.930;9.526;2022-09-03T06:24:22;18.30;99.90
18805;DHT22;9530;48.930;9.526;2022-09-03T06:26:51;18.40;99.90
18805;DHT22;9530;48.930;9.526;2022-09-03T06:29:18;18.50;99.90
18805;DHT22;9530;48.930;9.526;2022-09-03T06:31:45;18.70;99.90
18805;DHT22;9530;48.930;9.526;2022-09-03T06:34:14;18.80;99.90
18805;DHT22;9530;48.930;9.526;2022-09-03T06:36:43;18.80;99.90
18805;DHT22;9530;48.930;9.526;2022-09-03T06:39:10;18.90;99.90
18805;DHT22;9530;48.930;9.526;2022-09-03T06:41:36;18.80;99.90
18805;DHT22;9530;48.930;9.526;2022-09-03T06:44:05;18.80;99.90
18805;DHT22;9530;48.930;9.526;2022-09-03T06:46:37;18.90;99.90
18805;DHT22;9530;48.930;9.526;2022-09-03T06:49:04;19.00;99.90
18805;DHT22;9530;48.930;9.526;2022-09-03T06:51:32;18.90;99.90
18805;DHT22;9530;48.930;9.526;2022-09-03T06:54:01;18.90;99.90
18805;DHT22;9530;48.930;9.526;2022-09-03T06:56:28;19.10;99.90
18805;DHT22;9530;48.930;9.526;2022-09-03T06:58:56;19.00;99.90
18805;DHT22;9530;48.930;9.526;2022-09-03T07:01:25;19.10;99.90
18805;DHT22;9530;48.930;9.526;2022-09-03T07:03:53;19.10;99.90
18805;DHT22;9530;48.930;9.526;2022-09-03T07:06:24;19.20;99.90
18805;DHT22;9530;48.930;9.526;2022-09-03T07:08:53;19.30;99.90
18805;DHT22;9530;48.930;9.526;2022-09-03T07:11:24;19.40;99.90
18805;DHT22;9530;48.930;9.526;2022-09-03T07:13:52;19.30;99.90
18805;DHT22;9530;48.930;9.526;2022-09-03T07:16:22;19.30;99.90
18805;DHT22;9530;48.930;9.526;2022-09-03T07:18:49;19.40;99.90
18805;DHT22;9530;48.930;9.526;2022-09-03T07:21:17;19.40;99.90
18805;DHT22;9530;48.930;9.526;2022-09-03T07:23:45;19.60;99.90
18805;DHT22;9530;48.930;9.526;2022-09-03T07:26:15;19.90;99.90
18805;DHT22;9530;48.930;9.526;2022-09-03T07:28:44;20.10;99.90
18805;DHT22;9530;48.930;9.526;2022-09-03T07:31:13;20.20;99.90
18805;DHT22;9530;48.930;9.526;2022-09-03T07:33:40;20.20;99.90
18805;DHT22;9530;48.930;9.526;2022-09-03T07:36:08;20.20;99.90
18805;DHT22;9530;48.930;9.526;2022-09-03T07:38:36;20.30;99.90
18805;DHT22;9530;48.930;9.526;2022-09-03T07:41:04;20.50;99.90
18805;DHT22;9530;48.930;9.526;2022-09-03T07:43:35;20.50;99.90
18805;DHT22;9530;48.930;9.526;2022-09-03T07:46:02;20.50;99.90
18805;DHT22;9530;48.930;9.526;2022-09-03T07:48:29;20.40;99.90
18805;DHT22;9530;48.930;9.526;2022-09-03T07:50:57;20.30;99.90
18805;DHT22;9530;48.930;9.526;2022-09-03T07:53:25;20.50;99.90
18805;DHT22;9530;48.930;9.526;2022-09-03T07:55:52;20.50;99.90
18805;DHT22;9530;48.930;9.526;2022-09-03T07:58:21;20.50;99.90
18805;DHT22;9530;48.930;9.526;2022-09-03T08:00:50;20.60;99.90
18805;DHT22;9530;48.930;9.526;2022-09-03T08:03:16;20.80;99.90
18805;DHT22;9530;48.930;9.526;2022-09-03T08:05:43;20.90;99.90
18805;DHT22;9530;48.930;9.526;2022-09-03T08:08:10;21.20;99.90
18805;DHT22;9530;48.930;9.526;2022-09-03T08:10:38;21.50;99.90
18805;DHT22;9530;48.930;9.526;2022-09-03T08:13:05;21.80;99.90
18805;DHT22;9530;48.930;9.526;2022-09-03T08:15:32;22.20;99.90
18805;DHT22;9530;48.930;9.526;2022-09-03T08:18:00;22.50;99.90
18805;DHT22;9530;48.930;9.526;2022-09-03T08:20:27;22.50;99.90
18805;DHT22;9530;48.930;9.526;2022-09-03T08:22:59;22.70;99.90
18805;DHT22;9530;48.930;9.526;2022-09-03T08:25:27;22.60;99.90
18805;DHT22;9530;48.930;9.526;2022-09-03T08:27:56;22.70;99.90
18805;DHT22;9530;48.930;9.526;2022-09-03T08:30:23;22.60;99.90
18805;DHT22;9530;48.930;9.526;2022-09-03T08:32:50;22.60;99.90
18805;DHT22;9530;48.930;9.526;2022-09-03T08:35:18;22.70;99.90
18805;DHT22;9530;48.930;9.526;2022-09-03T08:37:46;22.60;99.90
18805;DHT22;9530;48.930;9.526;2022-09-03T08:40:14;22.60;99.90
18805;DHT22;9530;48.930;9.526;2022-09-03T08:42:46;22.60;99.90
18805;DHT22;9530;48.930;9.526;2022-09-03T08:45:17;22.80;99.90
18805;DHT22;9530;48.930;9.526;2022-09-03T08:47:47;23.10;99.90
18805;DHT22;9530;48.930;9.526;2022-09-03T08:50:22;23.10;99.90
18805;DHT22;9530;48.930;9.526;2022-09-03T08:52:52;23.20;99.90
18805;DHT22;9530;48.930;9.526;2022-09-03T08:55:25;23.30;99.90
18805;DHT22;9530;48.930;9.526;2022-09-03T08:57:57;23.40;99.90
18805;DHT22;9530;48.930;9.526;2022-09-03T09:00:32;23.30;99.90
18805;DHT22;9530;48.930;9.526;2022-09-03T09:03:19;23.30;99.90
18805;DHT22;9530;48.930;9.526;2022-09-03T09:05:53;23.10;99.90
18805;DHT22;9530;48.930;9.526;2022-09-03T09:08:30;23.00;99.90
18805;DHT22;9530;48.930;9.526;2022-09-03T09:11:03;23.10;99.90
18805;DHT22;9530;48.930;9.526;2022-09-03T09:13:38;23.20;99.90
18805;DHT22;9530;48.930;9.526;2022-09-03T09:16:13;23.60;99.90
18805;DHT22;9530;48.930;9.526;2022-09-03T09:18:49;23.60;99.90
18805;DHT22;9530;48.930;9.526;2022-09-03T09:21:27;23.40;99.90
18805;DHT22;9530;48.930;9.526;2022-09-03T09:23:58;23.20;99.90
18805;DHT22;9530;48.930;9.526;2022-09-03T09:26:27;23.00;99.90
18805;DHT22;9530;48.930;9.526;2022-09-03T09:28:58;22.90;99.90
18805;DHT22;9530;48.930;9.526;2022-09-03T09:31:27;23.10;99.90
18805;DHT22;9530;48.930;9.526;2022-09-03T09:33:56;23.20;99.90
18805;DHT22;9530;48.930;9.526;2022-09-03T09:36:27;23.20;99.90
18805;DHT22;9530;48.930;9.526;2022-09-03T09:38:54;23.40;99.90
18805;DHT22;9530;48.930;9.526;2022-09-03T09:41:21;23.80;99.90
18805;DHT22;9530;48.930;9.526;2022-09-03T09:43:58;23.80;99.90
18805;DHT22;9530;48.930;9.526;2022-09-03T09:46:30;23.80;99.90
18805;DHT22;9530;48.930;9.526;2022-09-03T09:48:59;23.80;99.90
18805;DHT22;9530;48.930;9.526;2022-09-03T09:51:29;24.00;99.90
18805;DHT22;9530;48.930;9.526;2022-09-03T09:54:01;24.00;99.90
18805;DHT22;9530;48.930;9.526;2022-09-03T09:56:28;24.10;99.90
18805;DHT22;9530;48.930;9.526;2022-09-03T09:59:02;24.20;99.90
18805;DHT22;9530;48.930;9.526;2022-09-03T10:01:28;24.10;99.90
18805;DHT22;9530;48.930;9.526;2022-09-03T10:03:57;23.80;99.90
18805;DHT22;9530;48.930;9.526;2022-09-03T10:06:26;23.80;99.90
18805;DHT22;9530;48.930;9.526;2022-09-03T10:09:14;23.80;99.90
18805;DHT22;9530;48.930;9.526;2022-09-03T10:11:43;23.80;99.90
18805;DHT22;9530;48.930;9.526;2022-09-03T10:14:18;23.70;99.90
18805;DHT22;9530;48.930;9.526;2022-09-03T10:16:52;23.80;99.90
18805;DHT22;9530;48.930;9.526;2022-09-03T10:19:26;23.70;99.90
18805;DHT22;9530;48.930;9.526;2022-09-03T10:22:00;23.90;99.90
18805;DHT22;9530;48.930;9.526;2022-09-03T10:24:38;23.80;99.90
18805;DHT22;9530;48.930;9.526;2022-09-03T10:27:08;23.60;99.90
18805;DHT22;9530;48.930;9.526;2022-09-03T10:29:37;23.60;99.90
18805;DHT22;9530;48.930;9.526;2022-09-03T10:32:16;23.70;99.90
18805;DHT22;9530;48.930;9.526;2022-09-03T10:34:53;23.80;99.90
18805;DHT22;9530;48.930;9.526;2022-09-03T10:37:31;23.60;99.90
18805;DHT22;9530;48.930;9.526;2022-09-03T10:40:14;23.60;99.90
18805;DHT22;9530;48.930;9.526;2022-09-03T10:42:44;23.60;99.90
18805;DHT22;9530;48.930;9.526;2022-09-03T10:45:18;23.80;99.90
18805;DHT22;9530;48.930;9.526;2022-09-03T10:50:50;23.80;99.90
18805;DHT22;9530;48.930;9.526;2022-09-03T10:53:27;24.10;99.90
18805;DHT22;9530;48.930;9.526;2022-09-03T10:56:01;24.50;99.90
18805;DHT22;9530;48.930;9.526;2022-09-03T10:58:42;24.80;99.90
18805;DHT22;9530;48.930;9.526;2022-09-03T11:01:24;24.80;99.90
18805;DHT22;9530;48.930;9.526;2022-09-03T11:04:01;25.00;99.90
18805;DHT22;9530;48.930;9.526;2022-09-03T11:06:40;25.20;99.90
18805;DHT22;9530;48.930;9.526;2022-09-03T11:09:14;25.10;99.90
18805;DHT22;9530;48.930;9.526;2022-09-03T11:11:48;25.20;99.90
18805;DHT22;9530;48.930;9.526;2022-09-03T11:14:24;24.90;99.90
18805;DHT22;9530;48.930;9.526;2022-09-03T11:16:58;24.70;99.90
18805;DHT22;9530;48.930;9.526;2022-09-03T11:19:33;24.70;99.90
18805;DHT22;9530;48.930;9.526;2022-09-03T11:22:00;24.90;99.90
18805;DHT22;9530;48.930;9.526;2022-09-03T11:24:29;24.90;99.90
18805;DHT22;9530;48.930;9.526;2022-09-03T11:27:04;25.10;99.90
18805;DHT22;9530;48.930;9.526;2022-09-03T11:29:35;24.70;99.90
18805;DHT22;9530;48.930;9.526;2022-09-03T11:32:08;24.70;99.90
18805;DHT22;9530;48.930;9.526;2022-09-03T11:34:45;24.90;99.90
18805;DHT22;9530;48.930;9.526;2022-09-03T11:37:20;25.00;99.90
18805;DHT22;9530;48.930;9.526;2022-09-03T11:39:56;24.80;99.90
18805;DHT22;9530;48.930;9.526;2022-09-03T11:42:28;24.60;99.90
18805;DHT22;9530;48.930;9.526;2022-09-03T11:45:21;24.60;99.90
18805;DHT22;9530;48.930;9.526;2022-09-03T11:47:49;24.80;99.90
18805;DHT22;9530;48.930;9.526;2022-09-03T11:50:19;25.10;99.90
18805;DHT22;9530;48.930;9.526;2022-09-03T11:52:46;25.00;99.90
18805;DHT22;9530;48.930;9.526;2022-09-03T11:55:26;24.90;99.90
18805;DHT22;9530;48.930;9.526;2022-09-03T11:57:57;24.90;99.90
18805;DHT22;9530;48.930;9.526;2022-09-03T12:00:24;25.00;99.90
18805;DHT22;9530;48.930;9.526;2022-09-03T12:02:55;25.00;99.90
18805;DHT22;9530;48.930;9.526;2022-09-03T12:05:27;25.20;99.90
18805;DHT22;9530;48.930;9.526;2022-09-03T12:08:09;25.20;99.90
18805;DHT22;9530;48.930;9.526;2022-09-03T12:10:50;25.20;99.90
18805;DHT22;9530;48.930;9.526;2022-09-03T12:13:32;25.10;99.90
18805;DHT22;9530;48.930;9.526;2022-09-03T12:18:53;24.90;99.90
18805;DHT22;9530;48.930;9.526;2022-09-03T12:21:21;24.80;99.90
18805;DHT22;9530;48.930;9.526;2022-09-03T12:23:50;24.40;99.90
18805;DHT22;9530;48.930;9.526;2022-09-03T12:26:18;24.30;99.90
18805;DHT22;9530;48.930;9.526;2022-09-03T12:28:49;24.10;99.90
18805;DHT22;9530;48.930;9.526;2022-09-03T12:31:18;24.00;99.90
18805;DHT22;9530;48.930;9.526;2022-09-03T12:33:48;23.80;99.90
18805;DHT22;9530;48.930;9.526;2022-09-03T12:36:16;23.80;99.90
18805;DHT22;9530;48.930;9.526;2022-09-03T12:38:43;23.50;99.90
18805;DHT22;9530;48.930;9.526;2022-09-03T12:41:26;23.40;99.90
18805;DHT22;9530;48.930;9.526;2022-09-03T12:43:57;23.30;99.90
18805;DHT22;9530;48.930;9.526;2022-09-03T12:46:25;23.20;99.90
18805;DHT22;9530;48.930;9.526;2022-09-03T12:48:54;23.10;99.90
18805;DHT22;9530;48.930;9.526;2022-09-03T12:51:21;22.90;99.90
18805;DHT22;9530;48.930;9.526;2022-09-03T12:53:48;22.90;99.90
18805;DHT22;9530;48.930;9.526;2022-09-03T12:56:17;22.80;99.90
18805;DHT22;9530;48.930;9.526;2022-09-03T12:58:48;22.70;99.90
18805;DHT22;9530;48.930;9.526;2022-09-03T13:01:21;22.60;99.90
18805;DHT22;9530;48.930;9.526;2022-09-03T13:03:51;22.60;99.90
18805;DHT22;9530;48.930;9.526;2022-09-03T13:06:21;22.60;99.90
18805;DHT22;9530;48.930;9.526;2022-09-03T13:08:50;22.60;99.90
18805;DHT22;9530;48.930;9.526;2022-09-03T13:11:20;22.50;99.90
18805;DHT22;9530;48.930;9.526;2022-09-03T13:13:53;22.50;99.90
18805;DHT22;9530;48.930;9.526;2022-09-03T13:17:04;22.50;99.90
18805;DHT22;9530;48.930;9.526;2022-09-03T13:19:42;22.20;99.90
18805;DHT22;9530;48.930;9.526;2022-09-03T13:22:19;21.80;99.90
18805;DHT22;9530;48.930;9.526;2022-09-03T13:25:13;21.60;99.90
18805;DHT22;9530;48.930;9.526;2022-09-03T13:27:45;21.40;99.90
18805;DHT22;9530;48.930;9.526;2022-09-03T13:30:19;21.20;99.90
18805;DHT22;9530;48.930;9.526;2022-09-03T13:32:55;21.10;99.90
18805;DHT22;9530;48.930;9.526;2022-09-03T13:35:32;20.90;99.90
18805;DHT22;9530;48.930;9.526;2022-09-03T13:38:07;20.60;99.90
18805;DHT22;9530;48.930;9.526;2022-09-03T13:40:40;20.70;99.90
18805;DHT22;9530;48.930;9.526;2022-09-03T13:43:19;20.60;99.90
18805;DHT22;9530;48.930;9.526;2022-09-03T13:45:53;20.60;99.90
18805;DHT22;9530;48.930;9.526;2022-09-03T13:48:29;20.40;99.90
18805;DHT22;9530;48.930;9.526;2022-09-03T13:51:18;20.40;99.90
18805;DHT22;9530;48.930;9.526;2022-09-03T13:53:57;20.40;99.90
18805;DHT22;9530;48.930;9.526;2022-09-03T13:56:34;20.50;99.90
18805;DHT22;9530;48.930;9.526;2022-09-03T13:59:06;20.60;99.90
18805;DHT22;9530;48.930;9.526;2022-09-03T14:01:49;20.70;99.90
18805;DHT22;9530;48.930;9.526;2022-09-03T14:04:24;21.00;99.90
18805;DHT22;9530;48.930;9.526;2022-09-03T14:06:57;21.20;99.90
18805;DHT22;9530;48.930;9.526;2022-09-03T14:09:32;21.40;99.90
18805;DHT22;9530;48.930;9.526;2022-09-03T14:12:04;21.60;99.90
18805;DHT22;9530;48.930;9.526;2022-09-03T14:14:40;21.80;99.90
18805;DHT22;9530;48.930;9.526;2022-09-03T14:17:14;21.90;99.90
18805;DHT22;9530;48.930;9.526;2022-09-03T14:19:47;21.70;99.90
18805;DHT22;9530;48.930;9.526;2022-09-03T14:22:17;21.90;99.90
18805;DHT22;9530;48.930;9.526;2022-09-03T14:24:50;21.90;99.90
18805;DHT22;9530;48.930;9.526;2022-09-03T14:27:24;22.10;99.90
18805;DHT22;9530;48.930;9.526;2022-09-03T14:29:57;21.80;99.90
18805;DHT22;9530;48.930;9.526;2022-09-03T14:32:30;21.90;99.90
18805;DHT22;9530;48.930;9.526;2022-09-03T14:35:33;21.70;99.90
18805;DHT22;9530;48.930;9.526;2022-09-03T14:41:04;22.10;99.90
18805;DHT22;9530;48.930;9.526;2022-09-03T14:43:53;22.20;99.90
18805;DHT22;9530;48.930;9.526;2022-09-03T14:46:32;22.10;99.90
18805;DHT22;9530;48.930;9.526;2022-09-03T14:49:16;22.00;99.90
18805;DHT22;9530;48.930;9.526;2022-09-03T14:51:57;21.70;99.90
18805;DHT22;9530;48.930;9.526;2022-09-03T14:54:45;21.40;99.90
18805;DHT22;9530;48.930;9.526;2022-09-03T14:57:32;21.40;99.90
18805;DHT22;9530;48.930;9.526;2022-09-03T15:00:08;21.30;99.90
18805;DHT22;9530;48.930;9.526;2022-09-03T15:03:08;21.10;99.90
18805;DHT22;9530;48.930;9.526;2022-09-03T15:06:01;21.00;99.90
18805;DHT22;9530;48.930;9.526;2022-09-03T15:08:42;20.90;99.90
18805;DHT22;9530;48.930;9.526;2022-09-03T15:11:15;20.70;99.90
18805;DHT22;9530;48.930;9.526;2022-09-03T15:13:46;20.50;99.90
18805;DHT22;9530;48.930;9.526;2022-09-03T15:16:24;20.50;99.90
18805;DHT22;9530;48.930;9.526;2022-09-03T15:19:08;20.50;99.90
18805;DHT22;9530;48.930;9.526;2022-09-03T15:21:56;20.40;99.90
18805;DHT22;9530;48.930;9.526;2022-09-03T15:24:35;20.50;99.90
18805;DHT22;9530;48.930;9.526;2022-09-03T15:27:12;20.30;99.90
18805;DHT22;9530;48.930;9.526;2022-09-03T15:29:51;20.30;99.90
18805;DHT22;9530;48.930;9.526;2022-09-03T15:32:30;20.30;99.90
18805;DHT22;9530;48.930;9.526;2022-09-03T15:35:05;20.30;99.90
18805;DHT22;9530;48.930;9.526;2022-09-03T15:37:41;20.30;99.90
18805;DHT22;9530;48.930;9.526;2022-09-03T15:40:21;20.30;99.90
18805;DHT22;9530;48.930;9.526;2022-09-03T15:42:51;20.20;99.90
18805;DHT22;9530;48.930;9.526;2022-09-03T15:45:31;20.20;99.90
18805;DHT22;9530;48.930;9.526;2022-09-03T15:48:09;20.30;99.90
18805;DHT22;9530;48.930;9.526;2022-09-03T15:50:46;20.30;99.90
18805;DHT22;9530;48.930;9.526;2022-09-03T15:53:24;20.30;99.90
18805;DHT22;9530;48.930;9.526;2022-09-03T15:56:10;20.40;99.90
18805;DHT22;9530;48.930;9.526;2022-09-03T15:58:44;20.40;99.90
18805;DHT22;9530;48.930;9.526;2022-09-03T16:01:29;20.50;99.90
18805;DHT22;9530;48.930;9.526;2022-09-03T16:04:03;20.50;99.90
18805;DHT22;9530;48.930;9.526;2022-09-03T16:06:43;20.80;99.90
18805;DHT22;9530;48.930;9.526;2022-09-03T16:09:34;21.50;99.90
18805;DHT22;9530;48.930;9.526;2022-09-03T16:12:13;22.40;99.90
18805;DHT22;9530;48.930;9.526;2022-09-03T16:14:48;23.00;99.90
18805;DHT22;9530;48.930;9.526;2022-09-03T16:17:24;24.60;99.90
18805;DHT22;9530;48.930;9.526;2022-09-03T16:19:55;25.50;99.90
18805;DHT22;9530;48.930;9.526;2022-09-03T16:22:27;26.30;99.90
18805;DHT22;9530;48.930;9.526;2022-09-03T16:24:59;26.80;99.90